sensor_id;sensor_type;location;lat;lon;timestamp;P1;durP1;ratioP1;P2;durP2;ratioP2
22205;SDS011;11272;50.104;8.754;2023-04-04T00:01:59;4.43;;;1.87;;
22205;SDS011;11272;50.104;8.754;2023-04-04T00:04:25;4.03;;;1.63;;
22205;SDS011;11272;50.104;8.754;2023-04-04T00:06:52;8.00;;;2.03;;
22205;SDS011;11272;50.104;8.754;2023-04-04T00:09:18;3.00;;;1.70;;
22205;SDS011;11272;50.104;8.754;2023-04-04T00:11:45;3.17;;;1.87;;
22205;SDS011;11272;50.104;8.754;2023-04-04T00:14:12;4.10;;;1.77;;
22205;SDS011;11272;50.104;8.754;2023-04-04T00:16:38;4.73;;;1.70;;
22205;SDS011;11272;50.104;8.754;2023-04-04T00:19:04;4.37;;;1.80;;
22205;SDS011;11272;50.104;8.754;2023-04-04T00:21:30;3.70;;;1.67;;
22205;SDS011;11272;50.104;8.754;2023-04-04T00:23:56;3.10;;;1.57;;
22205;SDS011;11272;50.104;8.754;2023-04-04T00:26:23;3.50;;;1.53;;
22205;SDS011;11272;50.104;8.754;2023-04-04T00:28:48;2.40;;;1.60;;
22205;SDS011;11272;50.104;8.754;2023-04-04T00:31:15;2.27;;;1.63;;
22205;SDS011;11272;50.104;8.754;2023-04-04T00:33:44;5.13;;;1.90;;
22205;SDS011;11272;50.104;8.754;2023-04-04T00:36:09;3.93;;;1.80;;
22205;SDS011;11272;50.104;8.754;2023-04-04T00:38:36;3.70;;;1.60;;
22205;SDS011;11272;50.104;8.754;2023-04-04T00:41:02;3.67;;;1.63;;
22205;SDS011;11272;50.104;8.754;2023-04-04T00:43:30;3.40;;;1.70;;
22205;SDS011;11272;50.104;8.754;2023-04-04T00:45:57;4.30;;;1.93;;
22205;SDS011;11272;50.104;8.754;2023-04-04T00:48:23;3.40;;;1.47;;
22205;SDS011;11272;50.104;8.754;2023-04-04T00:50:50;3.57;;;1.87;;
22205;SDS011;11272;50.104;8.754;2023-04-04T00:53:16;9.83;;;2.00;;
22205;SDS011;11272;50.104;8.754;2023-04-04T00:55:43;2.83;;;1.70;;
22205;SDS011;11272;50.104;8.754;2023-04-04T00:58:09;4.17;;;1.93;;
22205;SDS011;11272;50.104;8.754;2023-04-04T01:00:35;7.13;;;2.47;;
22205;SDS011;11272;50.104;8.754;2023-04-04T01:03:01;5.87;;;2.20;;
22205;SDS011;11272;50.104;8.754;2023-04-04T01:05:32;3.10;;;2.00;;
22205;SDS011;11272;50.104;8.754;2023-04-04T01:07:59;6.13;;;2.00;;
22205;SDS011;11272;50.104;8.754;2023-04-04T01:10:25;4.20;;;2.27;;
22205;SDS011;11272;50.104;8.754;2023-04-04T01:12:51;3.47;;;2.13;;
22205;SDS011;11272;50.104;8.754;2023-04-04T01:15:16;3.33;;;2.23;;
22205;SDS011;11272;50.104;8.754;2023-04-04T01:17:43;3.77;;;2.40;;
22205;SDS011;11272;50.104;8.754;2023-04-04T01:20:10;4.30;;;2.43;;
22205;SDS011;11272;50.104;8.754;2023-04-04T01:22:43;2.83;;;2.00;;
22205;SDS011;11272;50.104;8.754;2023-04-04T01:25:10;5.90;;;2.27;;
22205;SDS011;11272;50.104;8.754;2023-04-04T01:27:40;3.60;;;2.20;;
22205;SDS011;11272;50.104;8.754;2023-04-04T02:18:09;9.90;;;3.80;;
22205;SDS011;11272;50.104;8.754;2023-04-04T02:20:35;7.13;;;3.27;;
22205;SDS011;11272;50.104;8.754;2023-04-04T02:23:01;5.50;;;3.27;;
22205;SDS011;11272;50.104;8.754;2023-04-04T02:25:27;7.20;;;3.97;;
22205;SDS011;11272;50.104;8.754;2023-04-04T02:27:52;8.03;;;3.17;;
22205;SDS011;11272;50.104;8.754;2023-04-04T02:30:19;4.83;;;3.33;;
22205;SDS011;11272;50.104;8.754;2023-04-04T02:32:46;8.03;;;3.90;;
22205;SDS011;11272;50.104;8.754;2023-04-04T02:35:16;6.90;;;3.93;;
22205;SDS011;11272;50.104;8.754;2023-04-04T02:37:42;6.87;;;3.60;;
22205;SDS011;11272;50.104;8.754;2023-04-04T02:40:13;5.53;;;3.20;;
22205;SDS011;11272;50.104;8.754;2023-04-04T02:42:43;4.90;;;3.50;;
22205;SDS011;11272;50.104;8.754;2023-04-04T02:45:09;5.10;;;3.20;;
22205;SDS011;11272;50.104;8.754;2023-04-04T02:47:36;4.87;;;3.00;;
22205;SDS011;11272;50.104;8.754;2023-04-04T02:50:02;6.70;;;3.27;;
22205;SDS011;11272;50.104;8.754;2023-04-04T02:52:29;5.60;;;3.33;;
22205;SDS011;11272;50.104;8.754;2023-04-04T02:54:58;5.43;;;3.47;;
22205;SDS011;11272;50.104;8.754;2023-04-04T02:57:30;5.00;;;2.90;;
22205;SDS011;11272;50.104;8.754;2023-04-04T02:59:56;6.60;;;3.17;;
22205;SDS011;11272;50.104;8.754;2023-04-04T03:02:22;7.10;;;3.13;;
22205;SDS011;11272;50.104;8.754;2023-04-04T03:04:49;4.30;;;2.83;;
22205;SDS011;11272;50.104;8.754;2023-04-04T03:07:16;4.07;;;2.90;;
22205;SDS011;11272;50.104;8.754;2023-04-04T03:09:43;6.83;;;3.20;;
22205;SDS011;11272;50.104;8.754;2023-04-04T03:12:10;7.07;;;3.20;;
22205;SDS011;11272;50.104;8.754;2023-04-04T03:14:36;3.20;;;2.70;;
22205;SDS011;11272;50.104;8.754;2023-04-04T03:17:03;5.00;;;3.40;;
22205;SDS011;11272;50.104;8.754;2023-04-04T03:19:29;6.00;;;3.00;;
22205;SDS011;11272;50.104;8.754;2023-04-04T03:21:55;6.10;;;3.23;;
22205;SDS011;11272;50.104;8.754;2023-04-04T03:24:21;9.23;;;3.20;;
22205;SDS011;11272;50.104;8.754;2023-04-04T03:26:47;6.03;;;2.70;;
22205;SDS011;11272;50.104;8.754;2023-04-04T03:29:13;6.13;;;2.87;;
22205;SDS011;11272;50.104;8.754;2023-04-04T03:31:38;7.03;;;2.80;;
22205;SDS011;11272;50.104;8.754;2023-04-04T03:34:05;4.13;;;2.87;;
22205;SDS011;11272;50.104;8.754;2023-04-04T03:36:31;4.80;;;2.63;;
22205;SDS011;11272;50.104;8.754;2023-04-04T03:38:57;5.00;;;3.10;;
22205;SDS011;11272;50.104;8.754;2023-04-04T03:41:22;9.07;;;2.87;;
22205;SDS011;11272;50.104;8.754;2023-04-04T03:43:49;4.70;;;3.30;;
22205;SDS011;11272;50.104;8.754;2023-04-04T03:46:15;5.17;;;3.17;;
22205;SDS011;11272;50.104;8.754;2023-04-04T03:48:43;9.53;;;3.70;;
22205;SDS011;11272;50.104;8.754;2023-04-04T03:51:09;10.10;;;3.53;;
22205;SDS011;11272;50.104;8.754;2023-04-04T03:53:36;5.63;;;3.37;;
22205;SDS011;11272;50.104;8.754;2023-04-04T03:56:02;7.57;;;3.90;;
22205;SDS011;11272;50.104;8.754;2023-04-04T03:58:28;5.90;;;3.67;;
22205;SDS011;11272;50.104;8.754;2023-04-04T04:00:54;6.17;;;4.00;;
22205;SDS011;11272;50.104;8.754;2023-04-04T04:03:21;4.97;;;3.80;;
22205;SDS011;11272;50.104;8.754;2023-04-04T04:05:47;10.27;;;3.20;;
22205;SDS011;11272;50.104;8.754;2023-04-04T04:08:13;7.27;;;3.60;;
22205;SDS011;11272;50.104;8.754;2023-04-04T04:14:39;4.67;;;3.80;;
22205;SDS011;11272;50.104;8.754;2023-04-04T04:17:06;4.00;;;3.00;;
22205;SDS011;11272;50.104;8.754;2023-04-04T04:19:32;4.83;;;3.10;;
22205;SDS011;11272;50.104;8.754;2023-04-04T04:21:58;6.80;;;3.57;;
22205;SDS011;11272;50.104;8.754;2023-04-04T04:24:24;5.23;;;3.30;;
22205;SDS011;11272;50.104;8.754;2023-04-04T04:26:50;6.23;;;3.50;;
22205;SDS011;11272;50.104;8.754;2023-04-04T04:29:16;8.80;;;3.97;;
22205;SDS011;11272;50.104;8.754;2023-04-04T04:31:42;6.23;;;3.40;;
22205;SDS011;11272;50.104;8.754;2023-04-04T04:34:08;3.93;;;2.77;;
22205;SDS011;11272;50.104;8.754;2023-04-04T04:36:36;6.43;;;3.30;;
22205;SDS011;11272;50.104;8.754;2023-04-04T04:39:23;4.67;;;3.37;;
22205;SDS011;11272;50.104;8.754;2023-04-04T04:42:15;9.33;;;3.13;;
22205;SDS011;11272;50.104;8.754;2023-04-04T04:44:48;9.20;;;3.50;;
22205;SDS011;11272;50.104;8.754;2023-04-04T04:47:29;6.87;;;3.50;;
22205;SDS011;11272;50.104;8.754;2023-04-04T04:49:58;7.17;;;3.23;;
22205;SDS011;11272;50.104;8.754;2023-04-04T04:52:35;5.03;;;3.17;;
22205;SDS011;11272;50.104;8.754;2023-04-04T04:55:03;5.50;;;2.80;;
22205;SDS011;11272;50.104;8.754;2023-04-04T04:57:33;7.10;;;3.43;;
22205;SDS011;11272;50.104;8.754;2023-04-04T05:00:09;7.30;;;3.70;;
22205;SDS011;11272;50.104;8.754;2023-04-04T05:02:50;7.20;;;3.17;;
22205;SDS011;11272;50.104;8.754;2023-04-04T05:05:26;6.53;;;3.63;;
22205;SDS011;11272;50.104;8.754;2023-04-04T05:08:00;10.03;;;4.10;;
22205;SDS011;11272;50.104;8.754;2023-04-04T05:10:28;7.63;;;3.80;;
22205;SDS011;11272;50.104;8.754;2023-04-04T05:12:56;7.43;;;3.50;;
22205;SDS011;11272;50.104;8.754;2023-04-04T05:15:25;8.93;;;3.80;;
22205;SDS011;11272;50.104;8.754;2023-04-04T05:17:54;12.87;;;4.10;;
22205;SDS011;11272;50.104;8.754;2023-04-04T05:20:20;5.60;;;3.10;;
22205;SDS011;11272;50.104;8.754;2023-04-04T05:22:48;8.90;;;4.40;;
22205;SDS011;11272;50.104;8.754;2023-04-04T05:25:19;4.23;;;3.43;;
22205;SDS011;11272;50.104;8.754;2023-04-04T05:27:46;6.87;;;3.87;;
22205;SDS011;11272;50.104;8.754;2023-04-04T05:30:18;5.07;;;3.60;;
22205;SDS011;11272;50.104;8.754;2023-04-04T05:32:58;11.73;;;3.73;;
22205;SDS011;11272;50.104;8.754;2023-04-04T05:35:27;4.40;;;3.10;;
22205;SDS011;11272;50.104;8.754;2023-04-04T05:37:54;8.57;;;3.40;;
22205;SDS011;11272;50.104;8.754;2023-04-04T05:40:21;5.67;;;3.57;;
22205;SDS011;11272;50.104;8.754;2023-04-04T05:42:54;6.30;;;3.53;;
22205;SDS011;11272;50.104;8.754;2023-04-04T05:45:30;6.07;;;3.57;;
22205;SDS011;11272;50.104;8.754;2023-04-04T05:47:57;7.30;;;3.57;;
22205;SDS011;11272;50.104;8.754;2023-04-04T05:50:27;4.90;;;3.00;;
22205;SDS011;11272;50.104;8.754;2023-04-04T05:52:59;6.97;;;3.50;;
22205;SDS011;11272;50.104;8.754;2023-04-04T05:55:25;4.97;;;3.47;;
22205;SDS011;11272;50.104;8.754;2023-04-04T05:57:56;6.93;;;3.63;;
22205;SDS011;11272;50.104;8.754;2023-04-04T06:00:32;8.53;;;3.50;;
22205;SDS011;11272;50.104;8.754;2023-04-04T06:06:28;4.50;;;3.30;;
22205;SDS011;11272;50.104;8.754;2023-04-04T06:08:54;6.27;;;3.70;;
22205;SDS011;11272;50.104;8.754;2023-04-04T06:11:20;7.87;;;4.37;;
22205;SDS011;11272;50.104;8.754;2023-04-04T06:13:50;5.20;;;3.27;;
22205;SDS011;11272;50.104;8.754;2023-04-04T06:16:19;5.73;;;3.63;;
22205;SDS011;11272;50.104;8.754;2023-04-04T06:18:47;3.23;;;2.90;;
22205;SDS011;11272;50.104;8.754;2023-04-04T06:21:12;6.67;;;3.50;;
22205;SDS011;11272;50.104;8.754;2023-04-04T06:23:39;6.90;;;3.33;;
22205;SDS011;11272;50.104;8.754;2023-04-04T06:26:05;5.30;;;3.00;;
22205;SDS011;11272;50.104;8.754;2023-04-04T06:28:32;12.83;;;5.60;;
22205;SDS011;11272;50.104;8.754;2023-04-04T06:30:58;7.47;;;3.37;;
22205;SDS011;11272;50.104;8.754;2023-04-04T06:33:35;9.43;;;4.00;;
22205;SDS011;11272;50.104;8.754;2023-04-04T06:36:01;7.53;;;3.30;;
22205;SDS011;11272;50.104;8.754;2023-04-04T06:38:27;3.43;;;2.57;;
22205;SDS011;11272;50.104;8.754;2023-04-04T06:40:56;4.83;;;3.30;;
22205;SDS011;11272;50.104;8.754;2023-04-04T06:43:22;6.90;;;3.33;;
22205;SDS011;11272;50.104;8.754;2023-04-04T06:45:49;4.77;;;3.50;;
22205;SDS011;11272;50.104;8.754;2023-04-04T06:48:18;5.73;;;3.17;;
22205;SDS011;11272;50.104;8.754;2023-04-04T06:50:43;7.87;;;3.07;;
22205;SDS011;11272;50.104;8.754;2023-04-04T06:53:12;3.30;;;2.40;;
22205;SDS011;11272;50.104;8.754;2023-04-04T06:55:39;7.53;;;2.53;;
22205;SDS011;11272;50.104;8.754;2023-04-04T06:58:04;6.07;;;2.93;;
22205;SDS011;11272;50.104;8.754;2023-04-04T07:00:32;3.53;;;2.50;;
22205;SDS011;11272;50.104;8.754;2023-04-04T07:02:58;4.47;;;2.43;;
22205;SDS011;11272;50.104;8.754;2023-04-04T07:05:25;5.40;;;2.90;;
22205;SDS011;11272;50.104;8.754;2023-04-04T07:07:54;4.97;;;2.60;;
22205;SDS011;11272;50.104;8.754;2023-04-04T07:10:22;4.37;;;2.20;;
22205;SDS011;11272;50.104;8.754;2023-04-04T07:12:49;4.03;;;2.33;;
22205;SDS011;11272;50.104;8.754;2023-04-04T07:15:16;5.43;;;2.13;;
22205;SDS011;11272;50.104;8.754;2023-04-04T07:17:42;2.87;;;2.00;;
22205;SDS011;11272;50.104;8.754;2023-04-04T07:20:08;3.90;;;1.70;;
22205;SDS011;11272;50.104;8.754;2023-04-04T07:22:36;1.93;;;1.63;;
22205;SDS011;11272;50.104;8.754;2023-04-04T07:25:04;3.03;;;1.70;;
22205;SDS011;11272;50.104;8.754;2023-04-04T07:27:30;2.80;;;1.87;;
22205;SDS011;11272;50.104;8.754;2023-04-04T07:30:14;2.90;;;1.97;;
22205;SDS011;11272;50.104;8.754;2023-04-04T07:32:39;2.30;;;1.60;;
22205;SDS011;11272;50.104;8.754;2023-04-04T07:35:05;3.77;;;1.87;;
22205;SDS011;11272;50.104;8.754;2023-04-04T07:37:32;3.80;;;2.00;;
22205;SDS011;11272;50.104;8.754;2023-04-04T07:40:04;6.43;;;2.20;;
22205;SDS011;11272;50.104;8.754;2023-04-04T07:42:33;4.43;;;1.87;;
22205;SDS011;11272;50.104;8.754;2023-04-04T07:44:58;2.97;;;1.80;;
22205;SDS011;11272;50.104;8.754;2023-04-04T07:47:24;2.10;;;1.60;;
22205;SDS011;11272;50.104;8.754;2023-04-04T07:49:51;5.47;;;2.00;;
22205;SDS011;11272;50.104;8.754;2023-04-04T07:52:17;5.60;;;1.90;;
22205;SDS011;11272;50.104;8.754;2023-04-04T07:54:50;2.50;;;1.73;;
22205;SDS011;11272;50.104;8.754;2023-04-04T07:57:17;2.67;;;1.40;;
22205;SDS011;11272;50.104;8.754;2023-04-04T07:59:43;3.77;;;1.80;;
22205;SDS011;11272;50.104;8.754;2023-04-04T08:02:09;3.03;;;1.80;;
22205;SDS011;11272;50.104;8.754;2023-04-04T08:04:35;3.87;;;1.80;;
22205;SDS011;11272;50.104;8.754;2023-04-04T08:07:00;2.50;;;1.43;;
22205;SDS011;11272;50.104;8.754;2023-04-04T08:09:26;2.53;;;2.00;;
22205;SDS011;11272;50.104;8.754;2023-04-04T08:11:58;4.37;;;1.60;;
22205;SDS011;11272;50.104;8.754;2023-04-04T08:14:26;7.47;;;2.30;;
22205;SDS011;11272;50.104;8.754;2023-04-04T08:16:52;3.70;;;1.73;;
22205;SDS011;11272;50.104;8.754;2023-04-04T08:19:18;4.20;;;1.63;;
22205;SDS011;11272;50.104;8.754;2023-04-04T08:21:44;4.60;;;1.73;;
22205;SDS011;11272;50.104;8.754;2023-04-04T08:24:11;3.30;;;1.57;;
22205;SDS011;11272;50.104;8.754;2023-04-04T08:26:37;1.90;;;1.60;;
22205;SDS011;11272;50.104;8.754;2023-04-04T08:29:03;3.07;;;2.00;;
22205;SDS011;11272;50.104;8.754;2023-04-04T08:31:29;6.07;;;2.20;;
22205;SDS011;11272;50.104;8.754;2023-04-04T08:33:55;5.13;;;1.87;;
22205;SDS011;11272;50.104;8.754;2023-04-04T08:36:21;4.23;;;2.10;;
22205;SDS011;11272;50.104;8.754;2023-04-04T08:38:50;3.37;;;1.40;;
22205;SDS011;11272;50.104;8.754;2023-04-04T08:41:17;2.93;;;1.60;;
22205;SDS011;11272;50.104;8.754;2023-04-04T08:43:43;3.37;;;1.50;;
22205;SDS011;11272;50.104;8.754;2023-04-04T08:46:20;3.57;;;1.57;;
22205;SDS011;11272;50.104;8.754;2023-04-04T08:48:47;3.30;;;1.73;;
22205;SDS011;11272;50.104;8.754;2023-04-04T08:51:16;2.97;;;1.70;;
22205;SDS011;11272;50.104;8.754;2023-04-04T08:53:44;10.67;;;2.67;;
22205;SDS011;11272;50.104;8.754;2023-04-04T08:56:11;17.67;;;2.70;;
22205;SDS011;11272;50.104;8.754;2023-04-04T08:58:37;6.47;;;1.97;;
22205;SDS011;11272;50.104;8.754;2023-04-04T09:01:03;2.90;;;1.73;;
22205;SDS011;11272;50.104;8.754;2023-04-04T09:03:30;6.17;;;1.93;;
22205;SDS011;11272;50.104;8.754;2023-04-04T09:06:00;2.83;;;1.73;;
22205;SDS011;11272;50.104;8.754;2023-04-04T09:08:29;3.93;;;1.57;;
22205;SDS011;11272;50.104;8.754;2023-04-04T09:10:56;2.30;;;1.50;;
22205;SDS011;11272;50.104;8.754;2023-04-04T09:13:25;3.20;;;1.53;;
22205;SDS011;11272;50.104;8.754;2023-04-04T09:15:52;2.57;;;1.67;;
22205;SDS011;11272;50.104;8.754;2023-04-04T09:18:19;2.60;;;1.30;;
22205;SDS011;11272;50.104;8.754;2023-04-04T09:20:48;3.17;;;1.70;;
22205;SDS011;11272;50.104;8.754;2023-04-04T09:23:17;3.00;;;1.57;;
22205;SDS011;11272;50.104;8.754;2023-04-04T09:28:14;3.87;;;1.60;;
22205;SDS011;11272;50.104;8.754;2023-04-04T09:30:41;4.83;;;1.70;;
22205;SDS011;11272;50.104;8.754;2023-04-04T09:33:10;3.70;;;1.60;;
22205;SDS011;11272;50.104;8.754;2023-04-04T09:35:46;2.70;;;1.60;;
22205;SDS011;11272;50.104;8.754;2023-04-04T09:38:16;3.97;;;1.60;;
22205;SDS011;11272;50.104;8.754;2023-04-04T09:40:43;3.40;;;1.80;;
22205;SDS011;11272;50.104;8.754;2023-04-04T09:43:11;6.33;;;2.00;;
22205;SDS011;11272;50.104;8.754;2023-04-04T09:45:38;2.57;;;1.50;;
22205;SDS011;11272;50.104;8.754;2023-04-04T09:48:06;3.50;;;1.70;;
22205;SDS011;11272;50.104;8.754;2023-04-04T09:50:33;3.80;;;1.60;;
22205;SDS011;11272;50.104;8.754;2023-04-04T09:53:00;2.20;;;1.50;;
22205;SDS011;11272;50.104;8.754;2023-04-04T09:55:33;7.03;;;2.27;;
22205;SDS011;11272;50.104;8.754;2023-04-04T09:58:09;4.47;;;1.77;;
22205;SDS011;11272;50.104;8.754;2023-04-04T10:00:41;2.97;;;1.80;;
22205;SDS011;11272;50.104;8.754;2023-04-04T10:03:15;2.07;;;1.47;;
22205;SDS011;11272;50.104;8.754;2023-04-04T10:05:45;4.73;;;1.47;;
22205;SDS011;11272;50.104;8.754;2023-04-04T10:08:16;3.40;;;1.80;;
22205;SDS011;11272;50.104;8.754;2023-04-04T10:10:58;6.17;;;2.07;;
22205;SDS011;11272;50.104;8.754;2023-04-04T10:13:26;5.00;;;2.00;;
22205;SDS011;11272;50.104;8.754;2023-04-04T10:15:57;2.87;;;1.70;;
22205;SDS011;11272;50.104;8.754;2023-04-04T10:18:25;3.53;;;1.90;;
22205;SDS011;11272;50.104;8.754;2023-04-04T10:20:53;4.83;;;1.70;;
22205;SDS011;11272;50.104;8.754;2023-04-04T10:23:23;2.73;;;1.80;;
22205;SDS011;11272;50.104;8.754;2023-04-04T10:25:51;3.83;;;1.50;;
22205;SDS011;11272;50.104;8.754;2023-04-04T10:28:22;4.43;;;1.50;;
22205;SDS011;11272;50.104;8.754;2023-04-04T10:30:54;4.93;;;1.70;;
22205;SDS011;11272;50.104;8.754;2023-04-04T10:33:26;2.70;;;1.50;;
22205;SDS011;11272;50.104;8.754;2023-04-04T10:36:03;4.33;;;1.60;;
22205;SDS011;11272;50.104;8.754;2023-04-04T10:38:36;5.37;;;2.03;;
22205;SDS011;11272;50.104;8.754;2023-04-04T10:41:07;4.77;;;1.60;;
22205;SDS011;11272;50.104;8.754;2023-04-04T10:43:34;2.53;;;1.40;;
22205;SDS011;11272;50.104;8.754;2023-04-04T10:46:16;3.90;;;1.67;;
22205;SDS011;11272;50.104;8.754;2023-04-04T10:48:46;3.03;;;1.77;;
22205;SDS011;11272;50.104;8.754;2023-04-04T10:51:13;7.30;;;1.90;;
22205;SDS011;11272;50.104;8.754;2023-04-04T10:53:39;3.30;;;1.53;;
22205;SDS011;11272;50.104;8.754;2023-04-04T10:56:06;1.50;;;1.30;;
22205;SDS011;11272;50.104;8.754;2023-04-04T10:58:38;4.03;;;1.50;;
22205;SDS011;11272;50.104;8.754;2023-04-04T11:01:05;2.40;;;1.33;;
22205;SDS011;11272;50.104;8.754;2023-04-04T11:03:32;3.17;;;2.07;;
22205;SDS011;11272;50.104;8.754;2023-04-04T11:09:53;3.10;;;1.70;;
22205;SDS011;11272;50.104;8.754;2023-04-04T11:12:28;2.40;;;1.43;;
22205;SDS011;11272;50.104;8.754;2023-04-04T11:20:16;2.93;;;1.70;;
22205;SDS011;11272;50.104;8.754;2023-04-04T11:22:44;3.67;;;1.80;;
22205;SDS011;11272;50.104;8.754;2023-04-04T11:27:52;2.00;;;1.47;;
22205;SDS011;11272;50.104;8.754;2023-04-04T11:30:20;7.60;;;1.63;;
22205;SDS011;11272;50.104;8.754;2023-04-04T11:32:49;6.87;;;1.77;;
22205;SDS011;11272;50.104;8.754;2023-04-04T11:35:16;5.13;;;1.93;;
22205;SDS011;11272;50.104;8.754;2023-04-04T11:37:42;4.60;;;1.63;;
22205;SDS011;11272;50.104;8.754;2023-04-04T11:40:10;2.33;;;1.63;;
22205;SDS011;11272;50.104;8.754;2023-04-04T11:42:39;3.33;;;1.60;;
22205;SDS011;11272;50.104;8.754;2023-04-04T11:45:06;5.43;;;2.30;;
22205;SDS011;11272;50.104;8.754;2023-04-04T11:47:34;2.87;;;1.70;;
22205;SDS011;11272;50.104;8.754;2023-04-04T11:50:00;4.22;;;1.80;;
22205;SDS011;11272;50.104;8.754;2023-04-04T11:52:32;2.40;;;1.53;;
22205;SDS011;11272;50.104;8.754;2023-04-04T11:55:12;3.03;;;1.60;;
22205;SDS011;11272;50.104;8.754;2023-04-04T11:57:42;2.37;;;1.70;;
22205;SDS011;11272;50.104;8.754;2023-04-04T12:00:08;3.40;;;1.87;;
22205;SDS011;11272;50.104;8.754;2023-04-04T12:02:36;2.80;;;1.80;;
22205;SDS011;11272;50.104;8.754;2023-04-04T12:05:03;2.47;;;1.70;;
22205;SDS011;11272;50.104;8.754;2023-04-04T12:07:32;4.07;;;1.70;;
22205;SDS011;11272;50.104;8.754;2023-04-04T12:09:58;2.27;;;1.80;;
22205;SDS011;11272;50.104;8.754;2023-04-04T12:12:26;9.73;;;2.30;;
22205;SDS011;11272;50.104;8.754;2023-04-04T12:14:53;4.73;;;1.97;;
22205;SDS011;11272;50.104;8.754;2023-04-04T12:17:19;1.83;;;1.55;;
22205;SDS011;11272;50.104;8.754;2023-04-04T12:19:44;3.30;;;1.83;;
22205;SDS011;11272;50.104;8.754;2023-04-04T12:22:11;3.25;;;1.83;;
22205;SDS011;11272;50.104;8.754;2023-04-04T12:24:36;1.90;;;1.48;;
22205;SDS011;11272;50.104;8.754;2023-04-04T12:27:02;7.47;;;1.77;;
22205;SDS011;11272;50.104;8.754;2023-04-04T12:29:29;3.50;;;2.13;;
22205;SDS011;11272;50.104;8.754;2023-04-04T12:32:00;2.73;;;2.17;;
22205;SDS011;11272;50.104;8.754;2023-04-04T12:34:28;3.60;;;1.70;;
22205;SDS011;11272;50.104;8.754;2023-04-04T12:36:56;3.77;;;1.93;;
22205;SDS011;11272;50.104;8.754;2023-04-04T12:39:26;5.83;;;2.97;;
22205;SDS011;11272;50.104;8.754;2023-04-04T12:41:59;3.63;;;2.07;;
22205;SDS011;11272;50.104;8.754;2023-04-04T12:44:34;3.43;;;2.40;;
22205;SDS011;11272;50.104;8.754;2023-04-04T12:47:02;3.20;;;2.20;;
22205;SDS011;11272;50.104;8.754;2023-04-04T12:49:30;3.93;;;1.93;;
22205;SDS011;11272;50.104;8.754;2023-04-04T12:51:57;3.90;;;2.03;;
22205;SDS011;11272;50.104;8.754;2023-04-04T12:54:29;3.30;;;2.10;;
22205;SDS011;11272;50.104;8.754;2023-04-04T12:57:02;3.53;;;2.00;;
22205;SDS011;11272;50.104;8.754;2023-04-04T12:59:30;7.47;;;2.13;;
22205;SDS011;11272;50.104;8.754;2023-04-04T13:01:59;2.87;;;2.07;;
22205;SDS011;11272;50.104;8.754;2023-04-04T13:04:27;5.40;;;2.63;;
22205;SDS011;11272;50.104;8.754;2023-04-04T13:06:53;3.97;;;2.80;;
22205;SDS011;11272;50.104;8.754;2023-04-04T13:09:19;3.87;;;2.80;;
22205;SDS011;11272;50.104;8.754;2023-04-04T13:12:03;5.93;;;2.17;;
22205;SDS011;11272;50.104;8.754;2023-04-04T13:17:24;8.33;;;2.97;;
22205;SDS011;11272;50.104;8.754;2023-04-04T13:19:50;3.63;;;2.40;;
22205;SDS011;11272;50.104;8.754;2023-04-04T13:22:16;3.17;;;2.30;;
22205;SDS011;11272;50.104;8.754;2023-04-04T13:24:42;6.17;;;2.40;;
22205;SDS011;11272;50.104;8.754;2023-04-04T13:27:07;10.23;;;3.77;;
22205;SDS011;11272;50.104;8.754;2023-04-04T13:29:33;4.17;;;2.90;;
22205;SDS011;11272;50.104;8.754;2023-04-04T13:31:58;2.10;;;1.90;;
22205;SDS011;11272;50.104;8.754;2023-04-04T13:34:26;3.70;;;2.40;;
22205;SDS011;11272;50.104;8.754;2023-04-04T13:36:52;6.57;;;2.63;;
22205;SDS011;11272;50.104;8.754;2023-04-04T13:39:18;6.70;;;2.80;;
22205;SDS011;11272;50.104;8.754;2023-04-04T13:41:44;3.03;;;2.20;;
22205;SDS011;11272;50.104;8.754;2023-04-04T13:44:13;8.77;;;2.90;;
22205;SDS011;11272;50.104;8.754;2023-04-04T13:46:41;5.33;;;2.50;;
22205;SDS011;11272;50.104;8.754;2023-04-04T13:49:08;4.03;;;2.70;;
22205;SDS011;11272;50.104;8.754;2023-04-04T13:51:35;3.00;;;2.33;;
22205;SDS011;11272;50.104;8.754;2023-04-04T13:54:01;2.47;;;2.03;;
22205;SDS011;11272;50.104;8.754;2023-04-04T13:56:26;2.83;;;2.20;;
22205;SDS011;11272;50.104;8.754;2023-04-04T13:58:52;3.93;;;1.97;;
22205;SDS011;11272;50.104;8.754;2023-04-04T14:01:20;2.20;;;1.90;;
22205;SDS011;11272;50.104;8.754;2023-04-04T14:03:46;3.20;;;2.10;;
22205;SDS011;11272;50.104;8.754;2023-04-04T14:06:12;4.50;;;2.43;;
22205;SDS011;11272;50.104;8.754;2023-04-04T14:08:40;4.43;;;2.50;;
22205;SDS011;11272;50.104;8.754;2023-04-04T14:11:06;2.87;;;2.30;;
22205;SDS011;11272;50.104;8.754;2023-04-04T14:13:31;5.60;;;2.30;;
22205;SDS011;11272;50.104;8.754;2023-04-04T14:15:57;5.17;;;2.60;;
22205;SDS011;11272;50.104;8.754;2023-04-04T14:18:23;3.37;;;2.00;;
22205;SDS011;11272;50.104;8.754;2023-04-04T14:20:48;4.53;;;2.60;;
22205;SDS011;11272;50.104;8.754;2023-04-04T14:23:14;5.47;;;2.20;;
22205;SDS011;11272;50.104;8.754;2023-04-04T14:25:39;4.70;;;2.50;;
22205;SDS011;11272;50.104;8.754;2023-04-04T14:28:06;4.23;;;2.40;;
22205;SDS011;11272;50.104;8.754;2023-04-04T14:30:32;2.77;;;2.20;;
22205;SDS011;11272;50.104;8.754;2023-04-04T14:32:57;3.10;;;2.27;;
22205;SDS011;11272;50.104;8.754;2023-04-04T14:35:23;9.20;;;2.40;;
22205;SDS011;11272;50.104;8.754;2023-04-04T14:37:49;3.67;;;2.27;;
22205;SDS011;11272;50.104;8.754;2023-04-04T14:40:14;3.40;;;2.20;;
22205;SDS011;11272;50.104;8.754;2023-04-04T14:42:40;2.20;;;2.00;;
22205;SDS011;11272;50.104;8.754;2023-04-04T14:45:06;2.97;;;1.90;;
22205;SDS011;11272;50.104;8.754;2023-04-04T14:47:32;5.07;;;2.37;;
22205;SDS011;11272;50.104;8.754;2023-04-04T14:49:59;7.17;;;2.97;;
22205;SDS011;11272;50.104;8.754;2023-04-04T14:52:27;4.03;;;2.50;;
22205;SDS011;11272;50.104;8.754;2023-04-04T14:54:55;3.73;;;2.30;;
22205;SDS011;11272;50.104;8.754;2023-04-04T14:57:22;3.00;;;2.60;;
22205;SDS011;11272;50.104;8.754;2023-04-04T14:59:48;3.53;;;2.33;;
22205;SDS011;11272;50.104;8.754;2023-04-04T15:02:14;4.40;;;2.40;;
22205;SDS011;11272;50.104;8.754;2023-04-04T15:04:40;3.50;;;2.33;;
22205;SDS011;11272;50.104;8.754;2023-04-04T15:07:07;4.20;;;2.10;;
22205;SDS011;11272;50.104;8.754;2023-04-04T15:09:33;4.57;;;2.17;;
22205;SDS011;11272;50.104;8.754;2023-04-04T15:11:58;3.30;;;2.30;;
22205;SDS011;11272;50.104;8.754;2023-04-04T15:14:26;2.73;;;2.10;;
22205;SDS011;11272;50.104;8.754;2023-04-04T15:16:52;4.10;;;2.50;;
22205;SDS011;11272;50.104;8.754;2023-04-04T15:19:18;2.20;;;2.00;;
22205;SDS011;11272;50.104;8.754;2023-04-04T15:21:43;3.40;;;2.27;;
22205;SDS011;11272;50.104;8.754;2023-04-04T15:24:09;4.30;;;2.53;;
22205;SDS011;11272;50.104;8.754;2023-04-04T15:26:36;3.90;;;2.67;;
22205;SDS011;11272;50.104;8.754;2023-04-04T15:29:02;3.57;;;2.27;;
22205;SDS011;11272;50.104;8.754;2023-04-04T15:31:29;3.03;;;2.40;;
22205;SDS011;11272;50.104;8.754;2023-04-04T15:33:57;5.30;;;2.37;;
22205;SDS011;11272;50.104;8.754;2023-04-04T15:36:26;7.77;;;2.50;;
22205;SDS011;11272;50.104;8.754;2023-04-04T15:38:53;5.77;;;2.50;;
22205;SDS011;11272;50.104;8.754;2023-04-04T15:41:20;3.50;;;2.30;;
22205;SDS011;11272;50.104;8.754;2023-04-04T15:43:47;3.77;;;2.30;;
22205;SDS011;11272;50.104;8.754;2023-04-04T15:46:12;2.70;;;2.20;;
22205;SDS011;11272;50.104;8.754;2023-04-04T15:48:38;5.67;;;2.27;;
22205;SDS011;11272;50.104;8.754;2023-04-04T15:51:04;4.13;;;1.83;;
22205;SDS011;11272;50.104;8.754;2023-04-04T15:53:30;4.90;;;2.30;;
22205;SDS011;11272;50.104;8.754;2023-04-04T15:55:56;2.40;;;2.17;;
22205;SDS011;11272;50.104;8.754;2023-04-04T15:58:22;3.43;;;2.20;;
22205;SDS011;11272;50.104;8.754;2023-04-04T16:00:48;3.63;;;2.57;;
22205;SDS011;11272;50.104;8.754;2023-04-04T16:03:15;4.47;;;2.27;;
22205;SDS011;11272;50.104;8.754;2023-04-04T16:05:41;5.27;;;2.73;;